createdAt,value
2017-12-30T00:00:00.483Z,99685.45
2017-12-30T00:01:05.255Z,99683.72
2017-12-30T00:02:09.859Z,99679.69
2017-12-30T00:03:14.353Z,99687.66
2017-12-30T00:04:18.811Z,99686.28
2017-12-30T00:05:23.407Z,99690.19
2017-12-30T00:06:27.869Z,99687.59
2017-12-30T00:07:32.763Z,99693.30
2017-12-30T00:08:37.910Z,99688.09
2017-12-30T00:09:42.731Z,99688.03
2017-12-30T00:10:47.817Z,99695.81
2017-12-30T00:11:52.235Z,99689.23
2017-12-30T00:12:56.725Z,99692.05
2017-12-30T00:14:01.155Z,99694.20
2017-12-30T00:15:10.584Z,99702.03
2017-12-30T00:16:16.613Z,99700.76
2017-12-30T00:17:21.041Z,99700.84
2017-12-30T00:18:25.569Z,99699.13
2017-12-30T00:19:30.216Z,99704.17
2017-12-30T00:20:35.531Z,99696.37
2017-12-30T00:21:39.912Z,99698.20
2017-12-30T00:22:44.392Z,99702.10
2017-12-30T00:23:49.451Z,99697.73
2017-12-30T00:24:53.847Z,99703.39
2017-12-30T00:25:58.962Z,99698.58
2017-12-30T00:27:03.331Z,99704.63
2017-12-30T00:28:07.672Z,99712.52
2017-12-30T00:29:12.113Z,99705.56
2017-12-30T00:30:16.722Z,99703.33
2017-12-30T00:31:21.493Z,99702.45
2017-12-30T00:32:27.994Z,99699.34
2017-12-30T00:33:32.966Z,99705.95
2017-12-30T00:34:37.331Z,99710.31
2017-12-30T00:35:41.740Z,99701.97
2017-12-30T00:36:46.088Z,99700.53
2017-12-30T00:37:50.653Z,99702.33
2017-12-30T00:38:55.401Z,99711.14
2017-12-30T00:39:59.834Z,99709.00
2017-12-30T00:41:04.349Z,99703.73
2017-12-30T00:42:08.751Z,99709.02
2017-12-30T00:43:13.103Z,99700.58
2017-12-30T00:44:17.559Z,99700.45
2017-12-30T00:45:22.537Z,99714.41
2017-12-30T00:46:27.065Z,99703.03
2017-12-30T00:47:31.892Z,99707.41
2017-12-30T00:48:36.336Z,99705.23
2017-12-30T00:49:40.710Z,99701.77
2017-12-30T00:50:45.936Z,99707.74
2017-12-30T00:51:51.313Z,99717.88
2017-12-30T00:52:55.656Z,99700.81
2017-12-30T00:54:00.030Z,99709.11
2017-12-30T00:55:04.401Z,99713.55
2017-12-30T00:57:23.734Z,99704.72
2017-12-30T00:58:29.019Z,99708.69
2017-12-30T00:59:33.460Z,99716.22
2017-12-30T01:00:38.112Z,99712.13
2017-12-30T01:01:42.495Z,99709.06
2017-12-30T01:02:47.234Z,99709.03
2017-12-30T01:03:52.233Z,99710.38
2017-12-30T01:04:56.597Z,99713.06
2017-12-30T01:06:00.952Z,99718.86
2017-12-30T01:07:05.392Z,99713.00
2017-12-30T01:08:09.777Z,99716.53
2017-12-30T01:09:14.375Z,99714.71
2017-12-30T01:10:18.727Z,99715.61
2017-12-30T01:11:23.064Z,99708.66
2017-12-30T01:12:27.491Z,99717.42
2017-12-30T01:13:31.863Z,99732.30
2017-12-30T01:14:36.560Z,99715.56
2017-12-30T01:15:41.278Z,99722.14
2017-12-30T01:16:45.713Z,99726.05
2017-12-30T01:17:51.184Z,99715.95
2017-12-30T01:18:55.600Z,99716.40
2017-12-30T01:20:00.052Z,99720.26
2017-12-30T01:21:04.784Z,99724.23
2017-12-30T01:22:09.202Z,99713.20
2017-12-30T01:23:13.629Z,99710.10
2017-12-30T01:24:17.971Z,99720.64
2017-12-30T01:25:27.275Z,99715.78
2017-12-30T01:26:31.630Z,99723.70
2017-12-30T01:27:36.022Z,99723.28
2017-12-30T01:28:40.526Z,99721.06
2017-12-30T01:29:45.757Z,99718.80
2017-12-30T01:30:51.319Z,99737.23
2017-12-30T01:31:56.122Z,99732.80
2017-12-30T01:33:01.265Z,99730.56
2017-12-30T01:34:05.797Z,99728.29
2017-12-30T01:35:10.236Z,99741.08
2017-12-30T01:36:18.060Z,99741.48
2017-12-30T01:37:23.396Z,99745.87
2017-12-30T01:38:28.525Z,99744.55
2017-12-30T01:39:32.895Z,99738.41
2017-12-30T01:40:37.617Z,99754.66
2017-12-30T01:41:42.038Z,99751.56
2017-12-30T01:42:46.391Z,99752.44
2017-12-30T01:43:50.767Z,99755.51
2017-12-30T01:44:55.645Z,99753.30
2017-12-30T01:46:00.203Z,99737.84
2017-12-30T01:47:04.528Z,99739.56
2017-12-30T01:48:08.813Z,99732.13
2017-12-30T01:49:13.244Z,99742.63
2017-12-30T01:50:17.675Z,99742.11
2017-12-30T01:51:22.382Z,99737.31
2017-12-30T01:52:26.852Z,99734.17
2017-12-30T01:53:31.997Z,99742.55
2017-12-30T01:54:36.341Z,99725.89
2017-12-30T01:55:40.716Z,99720.55
2017-12-30T01:56:45.070Z,99723.19
2017-12-30T01:57:49.446Z,99720.97
2017-12-30T01:58:53.798Z,99729.78
2017-12-30T01:59:58.252Z,99734.19
2017-12-30T02:01:03.001Z,99734.17
2017-12-30T02:02:07.369Z,99719.63
2017-12-30T02:03:11.776Z,99715.57
2017-12-30T02:04:16.072Z,99719.64
2017-12-30T02:05:20.516Z,99721.86
2017-12-30T02:06:24.913Z,99719.21
2017-12-30T02:07:29.970Z,99741.20
2017-12-30T02:08:34.277Z,99727.64
2017-12-30T02:09:39.385Z,99718.40
2017-12-30T02:10:43.683Z,99718.41
2017-12-30T02:11:47.976Z,99718.45
2017-12-30T02:12:52.458Z,99727.19
2017-12-30T02:13:57.216Z,99715.77
2017-12-30T02:15:03.453Z,99727.63
2017-12-30T02:16:08.067Z,99717.11
2017-12-30T02:17:12.390Z,99717.08
2017-12-30T02:18:17.094Z,99715.30
2017-12-30T02:19:21.632Z,99715.75
2017-12-30T02:20:26.189Z,99714.38
2017-12-30T02:21:31.369Z,99714.84
2017-12-30T02:22:35.719Z,99719.27
2017-12-30T02:23:40.041Z,99716.20
2017-12-30T02:24:44.786Z,99721.96
2017-12-30T02:25:50.059Z,99727.28
2017-12-30T02:26:54.529Z,99725.47
2017-12-30T02:27:58.920Z,99722.38
2017-12-30T02:29:03.324Z,99728.05
2017-12-30T02:30:07.862Z,99739.11
2017-12-30T02:31:12.474Z,99718.76
2017-12-30T02:32:17.135Z,99723.62
2017-12-30T02:33:21.633Z,99722.80
2017-12-30T02:34:26.031Z,99731.60
2017-12-30T02:35:30.959Z,99728.53
2017-12-30T02:36:35.269Z,99728.53
2017-12-30T02:37:39.642Z,99734.19
2017-12-30T02:38:44.065Z,99720.12
2017-12-30T02:39:48.666Z,99722.70
2017-12-30T02:40:53.016Z,99741.20
2017-12-30T02:41:57.571Z,99725.36
2017-12-30T02:43:02.033Z,99724.98
2017-12-30T02:44:06.366Z,99728.94
2017-12-30T02:45:13.433Z,99722.34
2017-12-30T02:46:17.875Z,99721.88
2017-12-30T02:47:22.317Z,99713.95
2017-12-30T02:48:27.349Z,99724.98
2017-12-30T02:49:31.725Z,99721.92
2017-12-30T02:50:36.167Z,99730.70
2017-12-30T02:51:40.841Z,99716.23
2017-12-30T02:52:45.136Z,99719.28
2017-12-30T02:53:49.607Z,99728.04
2017-12-30T02:54:54.012Z,99720.53
2017-12-30T02:55:58.360Z,99719.70
2017-12-30T02:57:03.378Z,99729.38
2017-12-30T02:58:08.038Z,99725.89
2017-12-30T02:59:12.488Z,99727.71
2017-12-30T03:00:22.167Z,99727.28
2017-12-30T03:01:26.611Z,99715.87
2017-12-30T03:02:32.048Z,99714.81
2017-12-30T03:03:36.713Z,99720.53
2017-12-30T03:04:41.185Z,99716.17
2017-12-30T03:05:46.154Z,99721.02
2017-12-30T03:06:50.508Z,99735.53
2017-12-30T03:07:54.832Z,99725.38
2017-12-30T03:08:59.106Z,99722.72
2017-12-30T03:10:03.869Z,99717.91
2017-12-30T03:11:08.300Z,99718.78
2017-12-30T03:12:12.603Z,99728.00
2017-12-30T03:13:16.930Z,99724.94
2017-12-30T03:14:21.357Z,99718.34
2017-12-30T03:15:31.154Z,99711.72
2017-12-30T03:16:35.822Z,99713.48
2017-12-30T03:17:54.900Z,99713.45
2017-12-30T03:18:59.325Z,99713.48
2017-12-30T03:20:03.716Z,99716.57
2017-12-30T03:21:08.144Z,99712.16
2017-12-30T03:22:13.351Z,99715.66
2017-12-30T03:23:31.358Z,99716.57
2017-12-30T03:24:35.949Z,99702.06
2017-12-30T03:25:40.450Z,99708.55
2017-12-30T03:26:47.614Z,99708.58
2017-12-30T03:27:52.069Z,99705.05
2017-12-30T03:28:56.701Z,99715.21
2017-12-30T03:30:01.021Z,99720.01
2017-12-30T03:31:06.244Z,99720.91
2017-12-30T03:32:10.790Z,99717.38
2017-12-30T03:33:15.429Z,99718.70
2017-12-30T03:34:19.756Z,99709.89
2017-12-30T03:35:25.318Z,99721.77
2017-12-30T03:36:30.314Z,99719.59
2017-12-30T03:37:34.754Z,99721.23
2017-12-30T03:38:39.167Z,99721.69
2017-12-30T03:39:43.484Z,99721.33
2017-12-30T03:40:48.833Z,99728.73
2017-12-30T03:41:53.292Z,99720.83
2017-12-30T03:42:57.611Z,99712.00
2017-12-30T03:44:01.929Z,99720.29
2017-12-30T03:45:07.084Z,99720.78
2017-12-30T03:46:12.188Z,99727.01
2017-12-30T03:47:16.781Z,99725.65
2017-12-30T03:48:21.636Z,99728.29
2017-12-30T03:49:29.687Z,99740.53
2017-12-30T03:50:34.289Z,99744.88
2017-12-30T03:51:38.694Z,99758.53
2017-12-30T03:52:43.366Z,99744.80
2017-12-30T03:53:49.425Z,99750.59
2017-12-30T03:54:53.808Z,99748.02
2017-12-30T03:55:58.153Z,99746.74
2017-12-30T03:57:02.430Z,99750.69
2017-12-30T03:58:06.809Z,99755.03
2017-12-30T03:59:11.156Z,99751.55
2017-12-30T04:00:31.379Z,99757.27
2017-12-30T04:01:35.687Z,99756.22
2017-12-30T04:02:40.013Z,99755.45
2017-12-30T04:03:44.326Z,99747.06
2017-12-30T04:04:49.797Z,99759.46
2017-12-30T04:05:54.480Z,99743.13
2017-12-30T04:06:58.825Z,99742.10
2017-12-30T04:08:03.472Z,99749.72
2017-12-30T04:09:07.833Z,99753.33
2017-12-30T04:10:12.164Z,99760.88
2017-12-30T04:11:16.778Z,99772.36
2017-12-30T04:12:22.204Z,99783.76
2017-12-30T04:13:26.525Z,99781.59
2017-12-30T04:14:30.860Z,99769.28
2017-12-30T04:15:35.496Z,99770.17
2017-12-30T04:16:40.190Z,99765.36
2017-12-30T04:17:44.843Z,99769.73
2017-12-30T04:18:49.878Z,99771.09
2017-12-30T04:19:54.197Z,99776.75
2017-12-30T04:21:00.684Z,99764.92
2017-12-30T04:22:07.279Z,99761.84
2017-12-30T04:23:11.606Z,99757.87
2017-12-30T04:24:16.281Z,99765.41
2017-12-30T04:25:20.880Z,99757.05
2017-12-30T04:26:25.455Z,99763.63
2017-12-30T04:27:29.849Z,99761.83
2017-12-30T04:28:34.318Z,99783.53
2017-12-30T04:29:38.744Z,99760.22
2017-12-30T04:30:43.341Z,99760.22
2017-12-30T04:31:48.417Z,99764.28
2017-12-30T04:32:52.718Z,99769.59
2017-12-30T04:33:57.153Z,99770.92
2017-12-30T04:35:01.675Z,99769.17
2017-12-30T04:36:06.029Z,99758.56
2017-12-30T04:37:10.630Z,99754.23
2017-12-30T04:38:15.069Z,99756.48
2017-12-30T04:39:19.420Z,99755.11
2017-12-30T04:40:24.570Z,99758.60
2017-12-30T04:41:28.871Z,99754.22
2017-12-30T04:42:33.232Z,99757.31
2017-12-30T04:43:37.694Z,99756.48
2017-12-30T04:44:42.017Z,99748.13
2017-12-30T04:45:47.748Z,99751.56
2017-12-30T04:46:52.417Z,99741.37
2017-12-30T04:47:56.729Z,99749.69
2017-12-30T04:49:01.490Z,99744.96
2017-12-30T04:50:05.829Z,99743.17
2017-12-30T04:51:10.248Z,99745.48
2017-12-30T04:52:14.576Z,99746.02
2017-12-30T04:53:18.869Z,99749.61
2017-12-30T04:54:23.205Z,99749.08
2017-12-30T04:55:27.925Z,99750.45
2017-12-30T04:56:33.306Z,99748.29
2017-12-30T04:57:37.686Z,99749.14
2017-12-30T04:58:41.988Z,99752.30
2017-12-30T04:59:46.376Z,99753.14
2017-12-30T05:00:51.404Z,99751.83
2017-12-30T05:01:55.836Z,99753.63
2017-12-30T05:03:00.241Z,99744.73
2017-12-30T05:04:04.601Z,99760.09
2017-12-30T05:05:11.241Z,99747.41
2017-12-30T05:06:15.652Z,99740.28
2017-12-30T05:07:20.371Z,99741.24
2017-12-30T05:08:24.787Z,99744.31
2017-12-30T05:09:29.725Z,99740.91
2017-12-30T05:10:34.823Z,99738.73
2017-12-30T05:11:39.267Z,99739.27
2017-12-30T05:12:43.609Z,99750.98
2017-12-30T05:13:49.227Z,99756.23
2017-12-30T05:14:53.552Z,99754.16
2017-12-30T05:16:06.323Z,99756.44
2017-12-30T05:17:10.706Z,99751.66
2017-12-30T05:18:20.675Z,99749.06
2017-12-30T05:19:25.022Z,99750.64
2017-12-30T05:20:29.359Z,99758.11
2017-12-30T05:21:33.659Z,99747.10
2017-12-30T05:22:37.992Z,99746.19
2017-12-30T05:23:42.607Z,99744.38
2017-12-30T05:24:48.238Z,99760.30
2017-12-30T05:25:53.320Z,99756.85
2017-12-30T05:26:57.715Z,99754.26
2017-12-30T05:28:02.019Z,99757.86
2017-12-30T05:29:06.435Z,99757.04
2017-12-30T05:30:12.918Z,99761.01
2017-12-30T05:31:17.415Z,99754.88
2017-12-30T05:32:22.030Z,99756.99
2017-12-30T05:33:26.754Z,99749.93
2017-12-30T05:34:32.368Z,99758.63
2017-12-30T05:35:36.671Z,99754.22
2017-12-30T05:36:41.073Z,99743.78
2017-12-30T05:37:45.404Z,99740.73
2017-12-30T05:38:50.044Z,99743.86
2017-12-30T05:39:54.556Z,99742.99
2017-12-30T05:40:59.049Z,99739.89
2017-12-30T05:42:03.759Z,99747.80
2017-12-30T05:43:08.212Z,99731.56
2017-12-30T05:44:20.881Z,99729.41
2017-12-30T05:45:25.463Z,99732.86
2017-12-30T05:46:30.783Z,99736.23
2017-12-30T05:47:35.235Z,99738.13
2017-12-30T05:48:39.902Z,99746.58
2017-12-30T05:49:44.224Z,99737.38
2017-12-30T05:50:48.879Z,99742.22
2017-12-30T05:51:53.939Z,99749.22
2017-12-30T05:52:58.376Z,99746.95
2017-12-30T05:54:02.692Z,99740.77
2017-12-30T05:55:07.020Z,99742.53
2017-12-30T05:56:11.424Z,99742.48
2017-12-30T05:57:16.340Z,99754.34
2017-12-30T05:58:20.831Z,99756.14
2017-12-30T05:59:26.035Z,99749.52
2017-12-30T06:00:30.912Z,99749.13
2017-12-30T06:01:35.347Z,99749.06
2017-12-30T06:02:39.692Z,99752.67
2017-12-30T06:03:44.449Z,99742.55
2017-12-30T06:04:49.776Z,99748.75
2017-12-30T06:05:54.115Z,99745.55
2017-12-30T06:06:58.441Z,99754.84
2017-12-30T06:08:02.716Z,99760.95
2017-12-30T06:09:07.302Z,99749.95
2017-12-30T06:10:11.959Z,99745.02
2017-12-30T06:11:16.237Z,99736.64
2017-12-30T06:12:20.558Z,99741.84
2017-12-30T06:13:25.024Z,99742.85
2017-12-30T06:14:29.503Z,99731.98
2017-12-30T06:15:34.089Z,99726.63
2017-12-30T06:16:38.422Z,99737.49
2017-12-30T06:17:42.761Z,99735.38
2017-12-30T06:18:48.075Z,99734.81
2017-12-30T06:19:52.456Z,99737.64
2017-12-30T06:20:56.751Z,99736.34
2017-12-30T06:22:01.397Z,99744.75
2017-12-30T06:23:05.717Z,99765.27
2017-12-30T06:24:10.196Z,99749.63
2017-12-30T06:25:14.779Z,99749.63
2017-12-30T06:26:19.129Z,99750.59
2017-12-30T06:27:23.467Z,99744.38
2017-12-30T06:28:27.768Z,99748.27
2017-12-30T06:29:32.243Z,99745.16
2017-12-30T06:30:36.801Z,99749.91
2017-12-30T06:31:41.348Z,99738.10
2017-12-30T06:32:46.269Z,99740.16
2017-12-30T06:33:52.330Z,99737.54
2017-12-30T06:34:56.941Z,99737.64
2017-12-30T06:36:01.287Z,99723.05
2017-12-30T06:37:05.743Z,99723.93
2017-12-30T06:38:10.078Z,99715.69
2017-12-30T06:39:14.894Z,99725.25
2017-12-30T06:40:19.671Z,99724.17
2017-12-30T06:41:24.509Z,99727.39
2017-12-30T06:42:29.245Z,99730.59
2017-12-30T06:43:33.828Z,99723.98
2017-12-30T06:44:38.567Z,99732.80
2017-12-30T06:45:43.277Z,99731.91
2017-12-30T06:46:47.691Z,99732.30
2017-12-30T06:47:52.438Z,99733.63
2017-12-30T06:48:57.358Z,99727.92
2017-12-30T06:50:01.768Z,99731.84
2017-12-30T06:51:06.163Z,99727.95
2017-12-30T06:52:10.923Z,99734.91
2017-12-30T06:53:15.598Z,99728.27
2017-12-30T06:54:20.229Z,99725.14
2017-12-30T06:55:24.674Z,99743.52
2017-12-30T06:56:29.387Z,99735.40
2017-12-30T06:57:33.953Z,99725.75
2017-12-30T06:58:39.100Z,99725.89
2017-12-30T06:59:43.540Z,99717.13
2017-12-30T07:00:49.035Z,99718.45
2017-12-30T07:01:53.429Z,99722.73
2017-12-30T07:02:58.088Z,99719.95
2017-12-30T07:04:02.435Z,99717.33
2017-12-30T07:05:07.009Z,99715.09
2017-12-30T07:06:11.472Z,99704.22
2017-12-30T07:07:22.653Z,99703.38
2017-12-30T07:08:26.935Z,99717.84
2017-12-30T07:09:38.031Z,99706.41
2017-12-30T07:10:42.712Z,99698.92
2017-12-30T07:11:48.076Z,99696.14
2017-12-30T07:12:52.486Z,99694.78
2017-12-30T07:13:56.793Z,99688.62
2017-12-30T07:15:03.681Z,99705.34
2017-12-30T07:16:11.382Z,99694.84
2017-12-30T07:17:15.978Z,99690.01
2017-12-30T07:18:20.443Z,99695.25
2017-12-30T07:19:24.843Z,99699.77
2017-12-30T07:20:29.417Z,99700.21
2017-12-30T07:21:34.104Z,99708.58
2017-12-30T07:22:38.793Z,99701.64
2017-12-30T07:23:43.813Z,99705.51
2017-12-30T07:24:48.149Z,99696.80
2017-12-30T07:25:52.495Z,99688.75
2017-12-30T07:26:56.857Z,99686.90
2017-12-30T07:28:01.118Z,99678.95
2017-12-30T07:29:05.502Z,99686.39
2017-12-30T07:30:15.606Z,99696.67
2017-12-30T07:31:19.947Z,99680.91
2017-12-30T07:32:35.710Z,99683.83
2017-12-30T07:33:40.084Z,99675.84
2017-12-30T07:34:44.860Z,99674.17
2017-12-30T07:35:49.247Z,99671.52
2017-12-30T07:36:54.490Z,99678.09
2017-12-30T07:37:59.083Z,99667.70
2017-12-30T07:39:03.688Z,99670.02
2017-12-30T07:40:08.570Z,99673.17
2017-12-30T07:41:13.594Z,99682.30
2017-12-30T07:42:17.920Z,99683.16
2017-12-30T07:43:22.331Z,99680.47
2017-12-30T07:44:26.937Z,99683.59
2017-12-30T07:45:32.193Z,99676.17
2017-12-30T07:46:36.527Z,99680.53
2017-12-30T07:47:41.236Z,99681.89
2017-12-30T07:48:46.167Z,99676.06
2017-12-30T07:49:50.509Z,99678.05
2017-12-30T07:50:54.976Z,99683.09
2017-12-30T07:51:59.293Z,99673.34
2017-12-30T07:53:03.604Z,99672.03
2017-12-30T07:54:08.057Z,99667.63
2017-12-30T07:55:12.464Z,99667.63
2017-12-30T07:56:16.793Z,99673.20
2017-12-30T07:57:21.224Z,99671.34
2017-12-30T07:58:25.556Z,99662.27
2017-12-30T07:59:30.826Z,99669.31
2017-12-30T08:00:35.806Z,99661.53
2017-12-30T08:01:40.576Z,99667.58
2017-12-30T08:02:45.280Z,99679.94
2017-12-30T08:03:50.263Z,99667.99
2017-12-30T08:04:54.623Z,99666.42
2017-12-30T08:05:59.227Z,99664.55
2017-12-30T08:07:03.899Z,99661.86
2017-12-30T08:09:20.743Z,99654.95
2017-12-30T08:10:25.231Z,99647.09
2017-12-30T08:11:30.728Z,99655.91
2017-12-30T08:12:35.186Z,99652.48
2017-12-30T08:13:39.838Z,99648.96
2017-12-30T08:14:44.283Z,99654.60
2017-12-30T08:15:48.870Z,99647.69
2017-12-30T08:16:53.440Z,99628.80
2017-12-30T08:17:58.146Z,99639.34
2017-12-30T08:19:03.208Z,99643.34
2017-12-30T08:20:07.533Z,99640.14
2017-12-30T08:21:11.950Z,99640.55
2017-12-30T08:22:16.348Z,99646.25
2017-12-30T08:23:20.725Z,99636.29
2017-12-30T08:24:25.055Z,99645.12
2017-12-30T08:25:29.773Z,99644.20
2017-12-30T08:26:34.084Z,99636.82
2017-12-30T08:27:38.569Z,99638.17
2017-12-30T08:28:42.886Z,99628.91
2017-12-30T08:29:48.229Z,99617.07
2017-12-30T08:30:52.783Z,99623.59
2017-12-30T08:31:57.567Z,99624.56
2017-12-30T08:33:01.964Z,99615.72
2017-12-30T08:34:06.297Z,99613.40
2017-12-30T08:35:10.687Z,99605.25
2017-12-30T08:36:15.010Z,99608.69
2017-12-30T08:37:19.753Z,99602.52
2017-12-30T08:38:24.421Z,99609.88
2017-12-30T08:39:28.780Z,99594.93
2017-12-30T08:40:33.145Z,99596.66
2017-12-30T08:41:37.535Z,99596.63
2017-12-30T08:42:41.952Z,99603.64
2017-12-30T08:43:46.617Z,99587.10
2017-12-30T08:44:51.098Z,99587.02
2017-12-30T08:45:55.716Z,99590.68
2017-12-30T08:47:00.141Z,99592.83
2017-12-30T08:48:04.566Z,99589.25
2017-12-30T08:49:09.375Z,99597.59
2017-12-30T08:50:13.757Z,99600.30
2017-12-30T08:51:18.103Z,99590.23
2017-12-30T08:52:22.635Z,99590.95
2017-12-30T08:53:27.315Z,99583.02
2017-12-30T08:54:31.645Z,99589.76
2017-12-30T08:55:36.453Z,99590.41
2017-12-30T08:56:40.892Z,99588.56
2017-12-30T08:57:46.195Z,99583.23
2017-12-30T08:58:50.540Z,99579.27
2017-12-30T08:59:54.910Z,99588.73
2017-12-30T09:00:59.323Z,99584.86
2017-12-30T09:02:03.994Z,99582.35
2017-12-30T09:03:08.348Z,99576.53
2017-12-30T09:04:12.740Z,99569.53
2017-12-30T09:05:17.228Z,99571.28
2017-12-30T09:06:21.644Z,99585.64
2017-12-30T09:07:26.426Z,99571.09
2017-12-30T09:08:32.421Z,99563.77
2017-12-30T09:09:36.945Z,99564.16
2017-12-30T09:10:41.320Z,99559.84
2017-12-30T09:11:46.444Z,99565.05
2017-12-30T09:12:50.814Z,99565.13
2017-12-30T09:13:55.180Z,99556.27
2017-12-30T09:14:59.788Z,99555.75
2017-12-30T09:16:04.621Z,99553.13
2017-12-30T09:17:09.096Z,99545.09
2017-12-30T09:18:13.615Z,99534.98
2017-12-30T09:19:18.224Z,99534.52
2017-12-30T09:20:22.689Z,99528.39
2017-12-30T09:21:27.064Z,99526.67
2017-12-30T09:22:32.256Z,99523.67
2017-12-30T09:23:37.029Z,99521.95
2017-12-30T09:24:41.461Z,99510.05
2017-12-30T09:25:46.175Z,99512.69
2017-12-30T09:26:50.591Z,99513.56
2017-12-30T09:27:55.029Z,99511.88
2017-12-30T09:28:59.390Z,99509.62
2017-12-30T09:30:07.825Z,99499.44
2017-12-30T09:31:12.373Z,99501.30
2017-12-30T09:32:18.895Z,99500.05
2017-12-30T09:33:23.564Z,99496.13
2017-12-30T09:34:28.840Z,99494.83
2017-12-30T09:35:33.589Z,99486.02
2017-12-30T09:36:37.997Z,99490.87
2017-12-30T09:37:42.340Z,99484.21
2017-12-30T09:38:46.722Z,99493.02
2017-12-30T09:39:52.097Z,99483.31
2017-12-30T09:40:56.587Z,99477.98
2017-12-30T09:42:01.400Z,99484.03
2017-12-30T09:43:06.025Z,99489.75
2017-12-30T09:44:10.402Z,99474.91
2017-12-30T09:45:16.609Z,99482.87
2017-12-30T09:46:21.278Z,99468.41
2017-12-30T09:47:25.669Z,99475.37
2017-12-30T09:48:31.315Z,99472.63
2017-12-30T09:49:35.826Z,99467.39
2017-12-30T09:50:40.168Z,99465.64
2017-12-30T09:51:44.920Z,99464.70
2017-12-30T09:52:50.144Z,99460.23
2017-12-30T09:53:54.785Z,99454.43
2017-12-30T09:54:59.208Z,99449.25
2017-12-30T09:56:03.568Z,99441.05
2017-12-30T09:57:08.301Z,99441.98
2017-12-30T09:58:12.693Z,99437.52
2017-12-30T09:59:17.085Z,99430.88
2017-12-30T10:00:31.700Z,99436.64
2017-12-30T10:01:36.298Z,99427.66
2017-12-30T10:02:41.066Z,99431.97
2017-12-30T10:03:45.724Z,99420.66
2017-12-30T10:04:50.988Z,99425.92
2017-12-30T10:05:55.514Z,99423.70
2017-12-30T10:06:59.881Z,99421.10
2017-12-30T10:08:04.278Z,99409.78
2017-12-30T10:09:08.961Z,99396.20
2017-12-30T10:10:13.584Z,99396.20
2017-12-30T10:11:17.968Z,99385.67
2017-12-30T10:12:22.323Z,99384.33
2017-12-30T10:13:27.716Z,99387.36
2017-12-30T10:14:32.183Z,99375.56
2017-12-30T10:15:36.761Z,99366.79
2017-12-30T10:16:41.561Z,99373.04
2017-12-30T10:17:45.915Z,99361.67
2017-12-30T10:18:50.412Z,99370.02
2017-12-30T10:19:54.924Z,99359.09
2017-12-30T10:20:59.277Z,99351.99
2017-12-30T10:22:03.724Z,99341.87
2017-12-30T10:23:08.327Z,99343.60
2017-12-30T10:24:13.088Z,99329.06
2017-12-30T10:25:17.522Z,99332.62
2017-12-30T10:26:22.007Z,99332.45
2017-12-30T10:27:26.941Z,99324.59
2017-12-30T10:28:32.228Z,99321.61
2017-12-30T10:29:36.991Z,99306.70
2017-12-30T10:30:41.715Z,99304.66
2017-12-30T10:31:46.102Z,99296.30
2017-12-30T10:32:51.373Z,99288.85
2017-12-30T10:33:55.754Z,99286.67
2017-12-30T10:35:00.275Z,99290.52
2017-12-30T10:37:10.939Z,99280.96
2017-12-30T10:38:15.811Z,99272.69
2017-12-30T10:39:20.233Z,99276.23
2017-12-30T10:40:31.513Z,99272.70
2017-12-30T10:41:35.890Z,99262.91
2017-12-30T10:42:40.667Z,99261.47
2017-12-30T10:43:45.108Z,99258.00
2017-12-30T10:44:49.515Z,99250.62
2017-12-30T10:45:54.681Z,99252.82
2017-12-30T10:46:59.146Z,99240.53
2017-12-30T10:48:03.574Z,99227.40
2017-12-30T10:49:08.225Z,99241.06
2017-12-30T10:50:12.753Z,99244.95
2017-12-30T10:51:17.175Z,99239.56
2017-12-30T10:52:21.666Z,99237.31
2017-12-30T10:53:26.202Z,99233.44
2017-12-30T10:54:31.535Z,99235.11
2017-12-30T10:55:36.330Z,99236.80
2017-12-30T10:56:40.763Z,99236.33
2017-12-30T10:57:45.201Z,99236.20
2017-12-30T10:58:49.732Z,99234.35
2017-12-30T10:59:54.112Z,99234.39
2017-12-30T11:01:00.373Z,99229.09
2017-12-30T11:02:04.865Z,99230.80
2017-12-30T11:03:09.245Z,99223.73
2017-12-30T11:04:13.727Z,99221.22
2017-12-30T11:05:18.228Z,99212.42
2017-12-30T11:06:22.675Z,99226.98
2017-12-30T11:07:27.389Z,99205.20
2017-12-30T11:08:32.457Z,99212.25
2017-12-30T11:09:36.916Z,99216.09
2017-12-30T11:10:41.363Z,99212.48
2017-12-30T11:11:45.800Z,99197.01
2017-12-30T11:12:51.107Z,99194.45
2017-12-30T11:13:55.510Z,99172.45
2017-12-30T11:15:00.055Z,99184.35
2017-12-30T11:16:04.734Z,99189.64
2017-12-30T11:17:09.399Z,99188.27
2017-12-30T11:18:13.963Z,99192.22
2017-12-30T11:19:18.361Z,99194.35
2017-12-30T11:20:22.874Z,99192.61
2017-12-30T11:21:27.193Z,99181.55
2017-12-30T11:22:32.612Z,99174.01
2017-12-30T11:23:37.211Z,99172.23
2017-12-30T11:24:42.103Z,99148.37
2017-12-30T11:25:46.723Z,99148.48
2017-12-30T11:26:51.766Z,99144.24
2017-12-30T11:27:56.262Z,99133.77
2017-12-30T11:29:00.616Z,99137.73
2017-12-30T11:30:06.947Z,99121.41
2017-12-30T11:31:12.048Z,99133.67
2017-12-30T11:32:16.451Z,99138.97
2017-12-30T11:33:20.884Z,99148.25
2017-12-30T11:34:25.464Z,99146.14
2017-12-30T11:35:29.922Z,99160.64
2017-12-30T11:36:34.704Z,99168.20
2017-12-30T11:37:39.273Z,99165.31
2017-12-30T11:38:44.177Z,99167.16
2017-12-30T11:39:49.291Z,99172.92
2017-12-30T11:40:53.907Z,99170.61
2017-12-30T11:41:58.713Z,99165.34
2017-12-30T11:43:03.173Z,99152.29
2017-12-30T11:44:07.572Z,99156.70
2017-12-30T11:45:16.941Z,99140.16
2017-12-30T11:46:21.383Z,99108.98
2017-12-30T11:47:25.870Z,99079.56
2017-12-30T11:48:31.946Z,99085.87
2017-12-30T11:49:36.357Z,99078.09
2017-12-30T11:50:40.763Z,99081.35
2017-12-30T11:51:45.174Z,99090.63
2017-12-30T11:52:50.667Z,99098.91
2017-12-30T11:53:55.098Z,99103.69
2017-12-30T11:54:59.886Z,99107.67
2017-12-30T11:56:04.852Z,99119.27
2017-12-30T11:57:09.343Z,99136.02
2017-12-30T11:58:13.765Z,99122.44
2017-12-30T11:59:18.154Z,99102.37
2017-12-30T12:00:22.957Z,99104.44
2017-12-30T12:01:27.384Z,99099.73
2017-12-30T12:02:32.478Z,99106.09
2017-12-30T12:03:36.924Z,99098.33
2017-12-30T12:04:41.399Z,99088.16
2017-12-30T12:05:46.374Z,99096.02
2017-12-30T12:06:50.757Z,99085.91
2017-12-30T12:07:55.632Z,99088.54
2017-12-30T12:09:00.212Z,99073.09
2017-12-30T12:10:04.796Z,99074.95
2017-12-30T12:11:09.305Z,99066.02
2017-12-30T12:12:13.780Z,99068.99
2017-12-30T12:13:18.689Z,99073.92
2017-12-30T12:14:23.117Z,99070.72
2017-12-30T12:15:28.022Z,99067.78
2017-12-30T12:16:33.891Z,99068.66
2017-12-30T12:17:38.468Z,99068.06
2017-12-30T12:18:43.045Z,99075.74
2017-12-30T12:19:47.774Z,99069.56
2017-12-30T12:20:52.177Z,99057.97
2017-12-30T12:21:56.618Z,99064.91
2017-12-30T12:23:01.024Z,99061.33
2017-12-30T12:24:05.577Z,99063.39
2017-12-30T12:25:09.993Z,99066.63
2017-12-30T12:26:15.302Z,99060.83
2017-12-30T12:27:19.828Z,99057.25
2017-12-30T12:28:24.237Z,99054.01
2017-12-30T12:29:30.418Z,99051.65
2017-12-30T12:30:35.171Z,99040.19
2017-12-30T12:31:39.585Z,99034.37
2017-12-30T12:32:44.103Z,99022.23
2017-12-30T12:33:50.125Z,99019.35
2017-12-30T12:34:54.722Z,99032.68
2017-12-30T12:35:59.156Z,99032.80
2017-12-30T12:37:03.577Z,99048.70
2017-12-30T12:38:08.126Z,99062.69
2017-12-30T12:39:12.576Z,99065.47
2017-12-30T12:40:22.593Z,99066.86
2017-12-30T12:41:27.065Z,99065.13
2017-12-30T12:42:31.794Z,99064.46
2017-12-30T12:43:36.256Z,99048.64
2017-12-30T12:44:40.647Z,99054.44